createdAt,value
2018-05-10T00:00:15.621Z,97568
2018-05-10T00:02:42.951Z,97569
2018-05-10T00:05:10.701Z,97566
2018-05-10T00:07:39.911Z,97567
2018-05-10T00:10:07.321Z,97562
2018-05-10T00:12:36.301Z,97570
2018-05-10T00:15:03.912Z,97571
2018-05-10T00:17:31.381Z,97566
2018-05-10T00:20:00.791Z,97561
2018-05-10T00:22:28.130Z,97564
2018-05-10T00:24:57.361Z,97558
2018-05-10T00:27:29.911Z,97557
2018-05-10T00:29:57.403Z,97565
2018-05-10T00:32:28.940Z,97562
2018-05-10T00:34:57.214Z,97554
2018-05-10T00:37:25.431Z,97561
2018-05-10T00:39:52.780Z,97561
2018-05-10T00:42:20.351Z,97554
2018-05-10T00:44:48.872Z,97557
2018-05-10T00:47:17.302Z,97556
2018-05-10T00:49:45.251Z,97563
2018-05-10T00:52:12.691Z,97564
2018-05-10T00:54:53.897Z,97562
2018-05-10T00:57:21.562Z,97568
2018-05-10T00:59:53.826Z,97571
2018-05-10T01:02:21.152Z,97572
2018-05-10T01:04:48.785Z,97567
2018-05-10T01:07:16.371Z,97566
2018-05-10T01:09:48.291Z,97564
2018-05-10T01:12:16.412Z,97555
2018-05-10T01:14:43.846Z,97560
2018-05-10T01:17:12.422Z,97564
2018-05-10T01:19:40.783Z,97562
2018-05-10T01:22:08.206Z,97566
2018-05-10T01:24:35.892Z,97562
2018-05-10T01:27:03.834Z,97569
2018-05-10T01:29:31.973Z,97571
2018-05-10T01:31:59.471Z,97560
2018-05-10T01:34:26.982Z,97563
2018-05-10T01:36:54.882Z,97566
2018-05-10T01:39:23.233Z,97575
2018-05-10T01:41:51.047Z,97571
2018-05-10T01:44:20.882Z,97574
2018-05-10T01:46:48.344Z,97578
2018-05-10T01:49:16.591Z,97575
2018-05-10T01:51:44.101Z,97570
2018-05-10T01:54:12.653Z,97572
2018-05-10T01:56:39.993Z,97575
2018-05-10T01:59:08.091Z,97571
2018-05-10T02:01:36.182Z,97567
2018-05-10T02:04:03.881Z,97578
2018-05-10T02:06:31.321Z,97577
2018-05-10T02:08:59.117Z,97579
2018-05-10T02:11:29.602Z,97587
2018-05-10T02:13:57.161Z,97587
2018-05-10T02:16:24.547Z,97582
2018-05-10T02:18:53.683Z,97584
2018-05-10T02:21:23.371Z,97591
2018-05-10T02:23:51.711Z,97591
2018-05-10T02:26:19.063Z,97593
2018-05-10T02:28:48.176Z,97594
2018-05-10T02:31:15.584Z,97591
2018-05-10T02:33:42.953Z,97599
2018-05-10T02:36:10.682Z,97594
2018-05-10T02:38:38.972Z,97601
2018-05-10T02:41:06.262Z,97609
2018-05-10T02:43:33.972Z,97603
2018-05-10T02:46:02.073Z,97611
2018-05-10T02:48:29.662Z,97604
2018-05-10T02:50:57.002Z,97604
2018-05-10T02:53:24.683Z,97617
2018-05-10T02:55:52.182Z,97622
2018-05-10T02:58:19.672Z,97619
2018-05-10T03:00:47.201Z,97615
2018-05-10T03:03:15.742Z,97600
2018-05-10T03:05:43.691Z,97597
2018-05-10T03:08:11.472Z,97601
2018-05-10T03:10:41.692Z,97616
2018-05-10T03:13:09.302Z,97607
2018-05-10T03:15:37.075Z,97605
2018-05-10T03:18:04.451Z,97607
2018-05-10T03:20:31.992Z,97605
2018-05-10T03:22:59.257Z,97607
2018-05-10T03:25:27.495Z,97611
2018-05-10T03:27:55.032Z,97603
2018-05-10T03:30:22.641Z,97602
2018-05-10T03:32:49.829Z,97598
2018-05-10T03:35:18.154Z,97599
2018-05-10T03:37:45.721Z,97599
2018-05-10T03:40:13.292Z,97605
2018-05-10T03:42:40.822Z,97603
2018-05-10T03:45:08.373Z,97600
2018-05-10T03:47:36.252Z,97607
2018-05-10T03:50:03.942Z,97601
2018-05-10T03:52:31.312Z,97616
2018-05-10T03:54:59.751Z,97616
2018-05-10T03:57:27.481Z,97616
2018-05-10T03:59:55.581Z,97618
2018-05-10T04:05:51.722Z,97629
2018-05-10T04:08:38.935Z,97630
2018-05-10T04:11:34.856Z,97631
2018-05-10T04:14:02.544Z,97632
2018-05-10T04:16:29.942Z,97630
2018-05-10T04:18:57.371Z,97640
2018-05-10T04:21:25.224Z,97632
2018-05-10T04:23:53.813Z,97640
2018-05-10T04:26:23.651Z,97641
2018-05-10T04:28:53.652Z,97646
2018-05-10T04:31:21.303Z,97649
2018-05-10T04:33:48.813Z,97649
2018-05-10T04:36:16.262Z,97663
2018-05-10T04:38:43.643Z,97661
2018-05-10T04:41:11.045Z,97662
2018-05-10T04:43:38.817Z,97660
2018-05-10T04:46:06.302Z,97662
2018-05-10T04:48:36.073Z,97665
2018-05-10T04:51:03.778Z,97665
2018-05-10T04:53:31.222Z,97663
2018-05-10T04:55:58.802Z,97675
2018-05-10T04:58:27.241Z,97680
2018-05-10T05:00:55.742Z,97678
2018-05-10T05:03:23.283Z,97681
2018-05-10T05:05:51.253Z,97694
2018-05-10T05:08:18.672Z,97690
2018-05-10T05:10:47.923Z,97682
2018-05-10T05:13:15.613Z,97686
2018-05-10T05:15:43.093Z,97689
2018-05-10T05:18:10.482Z,97698
2018-05-10T05:20:38.951Z,97698
2018-05-10T05:23:07.051Z,97702
2018-05-10T05:25:34.351Z,97708
2018-05-10T05:28:02.401Z,97707
2018-05-10T05:30:29.775Z,97710
2018-05-10T05:32:57.345Z,97711
2018-05-10T05:35:24.903Z,97717
2018-05-10T05:37:52.087Z,97726
2018-05-10T05:40:19.861Z,97718
2018-05-10T05:42:49.605Z,97719
2018-05-10T05:45:17.041Z,97720
2018-05-10T05:47:44.740Z,97719
2018-05-10T05:50:12.453Z,97714
2018-05-10T05:52:40.251Z,97720
2018-05-10T05:55:07.725Z,97722
2018-05-10T05:57:36.121Z,97725
2018-05-10T06:00:03.871Z,97736
2018-05-10T06:02:31.550Z,97739
2018-05-10T06:04:59.805Z,97748
2018-05-10T06:07:26.879Z,97743
2018-05-10T06:09:55.261Z,97749
2018-05-10T06:12:23.401Z,97748
2018-05-10T06:14:50.832Z,97769
2018-05-10T06:17:18.403Z,97765
2018-05-10T06:19:45.901Z,97766
2018-05-10T06:22:13.351Z,97770
2018-05-10T06:24:40.955Z,97757
2018-05-10T06:27:08.425Z,97772
2018-05-10T06:29:36.083Z,97777
2018-05-10T06:32:03.592Z,97773
2018-05-10T06:34:32.194Z,97773
2018-05-10T06:36:59.548Z,97780
2018-05-10T06:39:27.661Z,97788
2018-05-10T06:41:55.311Z,97792
2018-05-10T06:44:22.853Z,97792
2018-05-10T06:46:50.597Z,97788
2018-05-10T06:49:18.911Z,97789
2018-05-10T06:51:46.383Z,97794
2018-05-10T06:54:14.151Z,97788
2018-05-10T06:56:41.221Z,97788
2018-05-10T06:59:08.762Z,97794
2018-05-10T07:01:36.089Z,97797
2018-05-10T07:04:03.952Z,97796
2018-05-10T07:06:31.624Z,97802
2018-05-10T07:08:59.172Z,97799
2018-05-10T07:11:26.653Z,97805
2018-05-10T07:13:54.172Z,97802
2018-05-10T07:16:21.823Z,97805
2018-05-10T07:18:49.543Z,97817
2018-05-10T07:21:17.743Z,97809
2018-05-10T07:23:46.302Z,97813
2018-05-10T07:26:14.072Z,97804
2018-05-10T07:28:41.793Z,97803
2018-05-10T07:31:09.402Z,97803
2018-05-10T07:33:41.192Z,97807
2018-05-10T07:36:08.953Z,97809
2018-05-10T07:38:36.504Z,97813
2018-05-10T07:41:04.992Z,97816
2018-05-10T07:43:33.903Z,97825
2018-05-10T07:46:02.922Z,97818
2018-05-10T07:48:31.652Z,97827
2018-05-10T07:50:59.174Z,97834
2018-05-10T07:53:26.832Z,97835
2018-05-10T07:55:54.182Z,97836
2018-05-10T07:58:21.883Z,97826
2018-05-10T08:00:54.422Z,97832
2018-05-10T08:03:25.202Z,97826
2018-05-10T08:05:53.515Z,97840
2018-05-10T08:08:22.203Z,97837
2018-05-10T08:10:49.701Z,97827
2018-05-10T08:13:17.802Z,97839
2018-05-10T08:15:45.652Z,97834
2018-05-10T08:18:13.095Z,97844
2018-05-10T08:20:41.432Z,97844
2018-05-10T08:23:09.091Z,97848
2018-05-10T08:25:36.482Z,97851
2018-05-10T08:28:04.094Z,97844
2018-05-10T08:30:31.632Z,97852
2018-05-10T08:32:59.312Z,97846
2018-05-10T08:35:26.793Z,97844
2018-05-10T08:37:54.353Z,97843
2018-05-10T08:40:22.262Z,97846
2018-05-10T08:42:50.799Z,97843
2018-05-10T08:45:20.060Z,97835
2018-05-10T08:47:49.404Z,97842
2018-05-10T08:50:17.392Z,97844
2018-05-10T08:52:45.713Z,97850
2018-05-10T08:55:16.488Z,97845
2018-05-10T08:57:44.282Z,97845
2018-05-10T09:00:11.595Z,97843
2018-05-10T09:02:40.293Z,97847
2018-05-10T09:05:07.924Z,97856
2018-05-10T09:07:35.602Z,97858
2018-05-10T09:10:04.001Z,97854
2018-05-10T09:12:31.702Z,97855
2018-05-10T09:15:00.202Z,97852
2018-05-10T09:17:27.662Z,97856
2018-05-10T09:19:56.201Z,97854
2018-05-10T09:22:24.072Z,97854
2018-05-10T09:24:56.342Z,97848
2018-05-10T09:27:24.664Z,97854
2018-05-10T09:29:52.571Z,97858
2018-05-10T09:32:19.752Z,97860
2018-05-10T09:34:47.532Z,97861
2018-05-10T09:37:16.181Z,97867
2018-05-10T09:39:44.792Z,97872
2018-05-10T09:42:12.812Z,97874
2018-05-10T09:44:41.181Z,97875
2018-05-10T09:47:12.335Z,97877
2018-05-10T09:49:41.171Z,97878
2018-05-10T09:52:10.302Z,97879
2018-05-10T09:54:38.333Z,97879
2018-05-10T09:57:06.114Z,97883
2018-05-10T09:59:33.289Z,97884
2018-05-10T10:02:02.613Z,97890
2018-05-10T10:04:32.130Z,97882
2018-05-10T10:07:00.445Z,97878
2018-05-10T10:09:28.934Z,97870
2018-05-10T10:11:56.411Z,97879
2018-05-10T10:14:24.013Z,97879
2018-05-10T10:16:52.612Z,97876
2018-05-10T10:19:20.132Z,97874
2018-05-10T10:21:48.092Z,97871
2018-05-10T10:24:16.442Z,97872
2018-05-10T10:26:45.074Z,97874
2018-05-10T10:29:13.643Z,97869
2018-05-10T10:31:41.342Z,97876
2018-05-10T10:34:08.362Z,97867
2018-05-10T10:36:35.842Z,97861
2018-05-10T10:39:03.122Z,97869
2018-05-10T10:41:31.646Z,97864
2018-05-10T10:43:59.573Z,97865
2018-05-10T10:46:27.982Z,97855
2018-05-10T10:48:56.002Z,97859
2018-05-10T10:51:23.733Z,97858
2018-05-10T10:53:51.459Z,97860
2018-05-10T10:56:20.292Z,97858
2018-05-10T10:58:48.093Z,97861
2018-05-10T11:01:15.542Z,97862
2018-05-10T11:03:43.692Z,97859
2018-05-10T11:06:12.962Z,97855
2018-05-10T11:08:40.683Z,97856
2018-05-10T11:11:08.652Z,97857
2018-05-10T11:13:36.159Z,97852
2018-05-10T11:16:05.053Z,97854
2018-05-10T11:18:32.742Z,97854
2018-05-10T11:21:01.102Z,97856
2018-05-10T11:23:28.611Z,97850
2018-05-10T11:25:56.321Z,97853
2018-05-10T11:28:24.792Z,97853
2018-05-10T11:30:53.181Z,97849
2018-05-10T11:33:20.958Z,97854
2018-05-10T11:35:48.833Z,97850
2018-05-10T11:38:22.562Z,97853
2018-05-10T11:40:50.487Z,97846
2018-05-10T11:43:19.031Z,97847
2018-05-10T11:45:49.233Z,97846
2018-05-10T11:48:18.102Z,97824
2018-05-10T11:50:48.122Z,97833
2018-05-10T11:53:15.793Z,97828
2018-05-10T11:55:43.685Z,97837
2018-05-10T11:58:11.412Z,97833
2018-05-10T12:00:38.972Z,97828
2018-05-10T12:03:06.892Z,97825
2018-05-10T12:05:35.212Z,97825
2018-05-10T12:08:02.872Z,97823
2018-05-10T12:10:30.483Z,97823
2018-05-10T12:12:58.895Z,97824
2018-05-10T12:15:26.862Z,97825
2018-05-10T12:17:54.294Z,97823
2018-05-10T12:20:23.106Z,97823
2018-05-10T12:22:51.602Z,97817
2018-05-10T12:25:20.393Z,97814
2018-05-10T12:27:48.182Z,97820
2018-05-10T12:30:15.325Z,97820
2018-05-10T12:32:42.722Z,97810
2018-05-10T12:35:11.189Z,97808
2018-05-10T12:37:38.872Z,97816
2018-05-10T12:40:06.354Z,97812
2018-05-10T12:42:33.853Z,97812
2018-05-10T12:45:01.632Z,97821
2018-05-10T12:47:29.862Z,97813
2018-05-10T12:49:57.372Z,97813
2018-05-10T12:52:25.493Z,97813
2018-05-10T12:54:53.174Z,97813
2018-05-10T12:57:21.362Z,97818
2018-05-10T12:59:48.771Z,97818
2018-05-10T13:02:16.331Z,97820
2018-05-10T13:04:44.312Z,97822
2018-05-10T13:07:13.200Z,97820
2018-05-10T13:09:41.023Z,97817
2018-05-10T13:12:08.732Z,97824
2018-05-10T13:14:37.502Z,97822
2018-05-10T13:17:06.562Z,97833
2018-05-10T13:19:35.192Z,97836
2018-05-10T13:22:02.972Z,97839
2018-05-10T13:24:32.111Z,97836
2018-05-10T13:27:00.862Z,97846
2018-05-10T13:29:30.261Z,97850
2018-05-10T13:31:58.992Z,97855
2018-05-10T13:34:27.344Z,97854
2018-05-10T13:36:55.502Z,97865
2018-05-10T13:39:23.522Z,97858
2018-05-10T13:41:51.592Z,97857
2018-05-10T13:44:20.513Z,97855
2018-05-10T13:46:52.606Z,97860
2018-05-10T13:49:21.072Z,97855
2018-05-10T13:52:13.144Z,97864
2018-05-10T13:54:46.072Z,97867
2018-05-10T13:57:16.083Z,97867
2018-05-10T13:59:49.578Z,97868
2018-05-10T14:02:18.432Z,97871
2018-05-10T14:04:47.414Z,97867
2018-05-10T14:07:19.333Z,97877
2018-05-10T14:10:00.551Z,97875
2018-05-10T14:12:29.883Z,97876
2018-05-10T14:14:57.804Z,97887
2018-05-10T14:17:27.085Z,97890
2018-05-10T14:19:55.090Z,97889
2018-05-10T14:22:26.852Z,97885
2018-05-10T14:24:54.270Z,97902
2018-05-10T14:27:34.458Z,97894
2018-05-10T14:33:08.625Z,97905
2018-05-10T14:35:40.362Z,97912
2018-05-10T14:38:08.941Z,97914
2018-05-10T14:40:37.322Z,97915
2018-05-10T14:43:08.821Z,97924
2018-05-10T14:45:42.897Z,97929
2018-05-10T14:48:29.214Z,97942
2018-05-10T14:53:51.204Z,97958
2018-05-10T14:56:21.020Z,97962
2018-05-10T14:58:56.532Z,97968
2018-05-10T15:01:39.016Z,97968
2018-05-10T15:04:10.633Z,97978
2018-05-10T15:06:38.621Z,97978
2018-05-10T15:09:13.482Z,97986
2018-05-10T15:11:54.609Z,97986
2018-05-10T15:14:23.151Z,97982
2018-05-10T15:17:06.204Z,97984
2018-05-10T15:19:38.535Z,97986
2018-05-10T15:22:09.538Z,97986
2018-05-10T15:24:47.694Z,97989
2018-05-10T15:27:15.786Z,97995
2018-05-10T15:29:45.742Z,97999
2018-05-10T15:32:22.352Z,98022
2018-05-10T15:34:55.156Z,98037
2018-05-10T15:37:24.021Z,98042
2018-05-10T15:39:51.972Z,98037
2018-05-10T15:42:22.082Z,98024
2018-05-10T15:44:50.722Z,98015
2018-05-10T15:47:19.402Z,98034
2018-05-10T15:49:48.692Z,98028
2018-05-10T15:52:16.302Z,98023
2018-05-10T15:54:44.831Z,98015
2018-05-10T15:57:12.522Z,98013
2018-05-10T15:59:41.552Z,98016
2018-05-10T16:02:11.986Z,98014
2018-05-10T16:04:39.482Z,98013
2018-05-10T16:07:08.224Z,98004
2018-05-10T16:09:45.328Z,98004
2018-05-10T16:12:14.053Z,98002
2018-05-10T16:14:41.592Z,98003
2018-05-10T16:17:09.141Z,97999
2018-05-10T16:19:36.732Z,98005
2018-05-10T16:22:04.252Z,98002
2018-05-10T16:24:32.352Z,98014
2018-05-10T16:27:00.062Z,98024
2018-05-10T16:29:27.702Z,98016
2018-05-10T16:31:57.282Z,98018
2018-05-10T16:34:25.476Z,98029
2018-05-10T16:36:53.052Z,98024
2018-05-10T16:39:20.664Z,98028
2018-05-10T16:41:48.311Z,98015
2018-05-10T16:44:15.882Z,98033
2018-05-10T16:46:43.551Z,98028
2018-05-10T16:49:11.392Z,98036
2018-05-10T16:51:39.082Z,98040
2018-05-10T16:54:07.692Z,98038
2018-05-10T16:56:35.341Z,98032
2018-05-10T16:59:03.113Z,98038
2018-05-10T17:01:31.542Z,98040
2018-05-10T17:03:59.182Z,98049
2018-05-10T17:06:26.932Z,98033
2018-05-10T17:08:54.752Z,98043
2018-05-10T17:11:23.052Z,98048
2018-05-10T17:13:50.861Z,98042
2018-05-10T17:16:19.351Z,98038
2018-05-10T17:18:47.135Z,98052
2018-05-10T17:21:14.771Z,98051
2018-05-10T17:23:42.784Z,98049
2018-05-10T17:26:11.332Z,98056
2018-05-10T17:28:39.192Z,98065
2018-05-10T17:31:09.392Z,98069
2018-05-10T17:33:36.922Z,98076
2018-05-10T17:36:04.581Z,98089
2018-05-10T17:38:32.642Z,98099
2018-05-10T17:43:56.242Z,98117
2018-05-10T17:46:43.272Z,98125
2018-05-10T17:49:15.472Z,98124
2018-05-10T17:59:05.094Z,98151
2018-05-10T18:01:34.892Z,98151
2018-05-10T18:04:03.251Z,98153
2018-05-10T18:06:31.082Z,98162
2018-05-10T18:09:05.913Z,98168
2018-05-10T18:11:33.691Z,98179
2018-05-10T18:14:01.476Z,98178
2018-05-10T18:16:31.122Z,98187
2018-05-10T18:19:02.265Z,98194
2018-05-10T18:21:30.542Z,98199
2018-05-10T18:23:58.731Z,98211
2018-05-10T18:26:27.294Z,98214
2018-05-10T18:28:56.571Z,98226
2018-05-10T18:31:26.732Z,98229
2018-05-10T18:33:54.472Z,98225
2018-05-10T18:36:22.102Z,98236
2018-05-10T18:38:50.163Z,98244
2018-05-10T18:41:18.402Z,98246
2018-05-10T18:43:46.481Z,98238
2018-05-10T18:46:14.182Z,98252
2018-05-10T18:48:43.952Z,98246
2018-05-10T18:51:12.183Z,98255
2018-05-10T18:53:43.452Z,98256
2018-05-10T18:56:11.102Z,98264
2018-05-10T18:58:38.692Z,98269
2018-05-10T19:01:06.582Z,98272
2018-05-10T19:03:34.522Z,98283
2018-05-10T19:06:04.724Z,98287
2018-05-10T19:08:32.312Z,98288
2018-05-10T19:11:00.022Z,98290
2018-05-10T19:13:28.612Z,98297
2018-05-10T19:15:57.724Z,98305
2018-05-10T19:18:25.553Z,98309
2018-05-10T19:20:55.176Z,98311
2018-05-10T19:23:23.792Z,98307
2018-05-10T19:25:53.412Z,98317
2018-05-10T19:28:21.702Z,98322
2018-05-10T19:30:51.032Z,98336
2018-05-10T19:33:18.962Z,98341
2018-05-10T19:35:49.713Z,98346
2018-05-10T19:38:17.732Z,98353
2018-05-10T19:40:45.422Z,98361
2018-05-10T19:43:13.132Z,98364
2018-05-10T19:45:41.639Z,98371
2018-05-10T19:48:09.262Z,98369
2018-05-10T19:50:37.632Z,98376
2018-05-10T19:53:05.242Z,98370
2018-05-10T19:55:33.193Z,98379
2018-05-10T19:58:00.522Z,98391
2018-05-10T20:00:28.412Z,98388
2018-05-10T20:02:57.412Z,98394
2018-05-10T20:05:27.942Z,98405
2018-05-10T20:08:00.294Z,98399
2018-05-10T20:10:30.472Z,98397
2018-05-10T20:12:58.113Z,98407
2018-05-10T20:15:26.562Z,98404
2018-05-10T20:17:57.812Z,98412
2018-05-10T20:20:27.022Z,98415
2018-05-10T20:22:55.346Z,98426
2018-05-10T20:25:24.652Z,98425
2018-05-10T20:27:52.792Z,98442
2018-05-10T20:30:20.582Z,98437
2018-05-10T20:32:49.442Z,98447
2018-05-10T20:35:18.732Z,98453
2018-05-10T20:37:48.613Z,98459
2018-05-10T20:40:16.583Z,98462
2018-05-10T20:42:46.722Z,98465
2018-05-10T20:45:15.622Z,98463
2018-05-10T20:47:43.882Z,98471
2018-05-10T20:50:18.292Z,98466
2018-05-10T20:52:48.622Z,98470
2018-05-10T20:55:18.012Z,98478
2018-05-10T20:57:46.393Z,98478
2018-05-10T21:00:14.362Z,98480
2018-05-10T21:02:42.602Z,98485
2018-05-10T21:05:10.042Z,98488
2018-05-10T21:07:40.051Z,98495
2018-05-10T21:10:07.952Z,98499
2018-05-10T21:12:45.121Z,98511
2018-05-10T21:15:12.791Z,98511
2018-05-10T21:17:41.531Z,98524
2018-05-10T21:20:09.451Z,98529
2018-05-10T21:22:36.982Z,98534
2018-05-10T21:25:05.664Z,98540
2018-05-10T21:27:33.601Z,98529
2018-05-10T21:30:03.471Z,98549
2018-05-10T21:32:31.072Z,98535
2018-05-10T21:34:58.684Z,98537
2018-05-10T21:37:26.432Z,98542
2018-05-10T21:39:55.451Z,98550
2018-05-10T21:42:26.905Z,98554
2018-05-10T21:44:54.362Z,98558
2018-05-10T21:47:22.392Z,98566
2018-05-10T21:50:04.682Z,98562
2018-05-10T21:52:33.217Z,98562
2018-05-10T21:55:00.908Z,98556
2018-05-10T21:57:29.241Z,98554
2018-05-10T21:59:56.631Z,98551
2018-05-10T22:02:24.221Z,98554
2018-05-10T22:04:51.594Z,98555
2018-05-10T22:07:19.181Z,98562
2018-05-10T22:09:46.652Z,98568
2018-05-10T22:12:14.932Z,98564
2018-05-10T22:14:42.483Z,98573
2018-05-10T22:17:10.193Z,98577
2018-05-10T22:19:37.742Z,98565
2018-05-10T22:22:06.421Z,98575
2018-05-10T22:24:34.626Z,98575
2018-05-10T22:27:04.703Z,98579
2018-05-10T22:29:32.702Z,98576
2018-05-10T22:32:00.632Z,98578
2018-05-10T22:34:28.732Z,98583
2018-05-10T22:36:56.911Z,98580
2018-05-10T22:39:24.441Z,98578
2018-05-10T22:41:51.872Z,98572
2018-05-10T22:44:19.365Z,98576
2018-05-10T22:46:46.711Z,98565
2018-05-10T22:49:14.504Z,98569
2018-05-10T22:51:42.002Z,98575
2018-05-10T22:54:09.711Z,98565
2018-05-10T22:56:37.282Z,98572
2018-05-10T22:59:05.331Z,98577
2018-05-10T23:01:35.072Z,98580
2018-05-10T23:04:03.441Z,98584
2018-05-10T23:06:32.257Z,98584
2018-05-10T23:08:59.781Z,98586
2018-05-10T23:11:29.361Z,98582
2018-05-10T23:13:56.922Z,98581
2018-05-10T23:16:27.180Z,98588
2018-05-10T23:18:57.722Z,98592
2018-05-10T23:21:28.171Z,98596
2018-05-10T23:23:55.761Z,98596
2018-05-10T23:26:24.551Z,98591
2018-05-10T23:28:53.352Z,98604
2018-05-10T23:31:22.721Z,98603
2018-05-10T23:33:50.181Z,98608
2018-05-10T23:36:19.321Z,98606
2018-05-10T23:38:46.845Z,98614
2018-05-10T23:41:14.441Z,98611
2018-05-10T23:43:47.281Z,98608
2018-05-10T23:46:14.641Z,98613
2018-05-10T23:48:42.141Z,98612
2018-05-10T23:51:09.265Z,98613
2018-05-10T23:53:38.183Z,98616
2018-05-10T23:56:05.512Z,98626
2018-05-10T23:58:33.322Z,98623
